sensor_id;sensor_type;location;lat;lon;timestamp;temperature;humidity
18240;DHT22;9244;50.828;4.718;2023-09-30T00:01:00;11.70;99.90
18240;DHT22;9244;50.828;4.718;2023-09-30T00:03:27;11.70;99.90
18240;DHT22;9244;50.828;4.718;2023-09-30T00:05:53;11.70;99.90
18240;DHT22;9244;50.828;4.718;2023-09-30T00:08:19;11.70;99.90
18240;DHT22;9244;50.828;4.718;2023-09-30T00:10:45;11.80;99.90
18240;DHT22;9244;50.828;4.718;2023-09-30T00:13:11;11.80;99.90
18240;DHT22;9244;50.828;4.718;2023-09-30T00:15:37;11.70;99.90
18240;DHT22;9244;50.828;4.718;2023-09-30T00:18:03;11.80;99.90
18240;DHT22;9244;50.828;4.718;2023-09-30T00:20:29;11.80;99.90
18240;DHT22;9244;50.828;4.718;2023-09-30T00:22:54;11.90;99.90
18240;DHT22;9244;50.828;4.718;2023-09-30T00:25:20;11.90;99.90
18240;DHT22;9244;50.828;4.718;2023-09-30T00:27:46;11.80;99.90
18240;DHT22;9244;50.828;4.718;2023-09-30T00:30:12;11.70;99.90
18240;DHT22;9244;50.828;4.718;2023-09-30T00:32:38;11.60;99.90
18240;DHT22;9244;50.828;4.718;2023-09-30T00:35:05;11.70;99.90
18240;DHT22;9244;50.828;4.718;2023-09-30T00:37:34;11.60;99.90
18240;DHT22;9244;50.828;4.718;2023-09-30T00:40:00;11.40;99.90
18240;DHT22;9244;50.828;4.718;2023-09-30T00:42:25;11.50;99.90
18240;DHT22;9244;50.828;4.718;2023-09-30T00:44:52;11.50;99.90
18240;DHT22;9244;50.828;4.718;2023-09-30T00:47:17;11.50;99.90
18240;DHT22;9244;50.828;4.718;2023-09-30T00:49:45;11.40;99.90
18240;DHT22;9244;50.828;4.718;2023-09-30T00:52:11;11.30;99.90
18240;DHT22;9244;50.828;4.718;2023-09-30T00:54:38;11.40;99.90
18240;DHT22;9244;50.828;4.718;2023-09-30T00:57:04;11.50;99.90
18240;DHT22;9244;50.828;4.718;2023-09-30T00:59:33;11.50;99.90
18240;DHT22;9244;50.828;4.718;2023-09-30T01:01:59;11.50;99.90
18240;DHT22;9244;50.828;4.718;2023-09-30T01:04:29;11.60;99.90
18240;DHT22;9244;50.828;4.718;2023-09-30T01:06:55;11.60;99.90
18240;DHT22;9244;50.828;4.718;2023-09-30T01:09:23;11.70;99.90
18240;DHT22;9244;50.828;4.718;2023-09-30T01:11:49;11.80;99.90
18240;DHT22;9244;50.828;4.718;2023-09-30T01:14:29;11.90;99.90
18240;DHT22;9244;50.828;4.718;2023-09-30T01:16:55;11.80;99.90
18240;DHT22;9244;50.828;4.718;2023-09-30T01:19:20;11.80;99.90
18240;DHT22;9244;50.828;4.718;2023-09-30T01:21:46;11.90;99.90
18240;DHT22;9244;50.828;4.718;2023-09-30T01:24:14;11.80;99.90
18240;DHT22;9244;50.828;4.718;2023-09-30T01:26:40;11.80;99.90
18240;DHT22;9244;50.828;4.718;2023-09-30T01:29:08;11.80;99.90
18240;DHT22;9244;50.828;4.718;2023-09-30T01:31:37;11.80;99.90
18240;DHT22;9244;50.828;4.718;2023-09-30T01:34:03;11.80;99.90
18240;DHT22;9244;50.828;4.718;2023-09-30T01:36:29;11.80;99.90
18240;DHT22;9244;50.828;4.718;2023-09-30T01:38:55;11.80;99.90
18240;DHT22;9244;50.828;4.718;2023-09-30T01:41:20;11.80;99.90
18240;DHT22;9244;50.828;4.718;2023-09-30T01:43:46;11.80;99.90
18240;DHT22;9244;50.828;4.718;2023-09-30T01:46:12;11.80;99.90
18240;DHT22;9244;50.828;4.718;2023-09-30T01:48:38;11.80;99.90
18240;DHT22;9244;50.828;4.718;2023-09-30T01:51:04;11.80;99.90
18240;DHT22;9244;50.828;4.718;2023-09-30T01:53:29;11.70;99.90
18240;DHT22;9244;50.828;4.718;2023-09-30T01:55:55;11.80;99.90
18240;DHT22;9244;50.828;4.718;2023-09-30T01:58:21;11.80;99.90
18240;DHT22;9244;50.828;4.718;2023-09-30T02:00:46;11.80;99.90
18240;DHT22;9244;50.828;4.718;2023-09-30T02:03:12;11.80;99.90
18240;DHT22;9244;50.828;4.718;2023-09-30T02:05:41;11.70;99.90
18240;DHT22;9244;50.828;4.718;2023-09-30T02:08:06;11.70;99.90
18240;DHT22;9244;50.828;4.718;2023-09-30T02:10:33;11.70;99.90
18240;DHT22;9244;50.828;4.718;2023-09-30T02:12:59;11.70;99.90
18240;DHT22;9244;50.828;4.718;2023-09-30T02:15:25;11.70;99.90
18240;DHT22;9244;50.828;4.718;2023-09-30T02:17:51;11.60;99.90
18240;DHT22;9244;50.828;4.718;2023-09-30T02:20:17;11.60;99.90
18240;DHT22;9244;50.828;4.718;2023-09-30T02:22:45;11.60;99.90
18240;DHT22;9244;50.828;4.718;2023-09-30T02:25:12;11.70;99.90
18240;DHT22;9244;50.828;4.718;2023-09-30T02:27:39;11.70;99.90
18240;DHT22;9244;50.828;4.718;2023-09-30T02:30:07;11.60;99.90
18240;DHT22;9244;50.828;4.718;2023-09-30T02:32:33;11.60;99.90
18240;DHT22;9244;50.828;4.718;2023-09-30T02:34:59;11.50;99.90
18240;DHT22;9244;50.828;4.718;2023-09-30T02:37:24;11.50;99.90
18240;DHT22;9244;50.828;4.718;2023-09-30T02:39:51;11.50;99.90
18240;DHT22;9244;50.828;4.718;2023-09-30T02:42:17;11.40;99.90
18240;DHT22;9244;50.828;4.718;2023-09-30T02:44:42;11.40;99.90
18240;DHT22;9244;50.828;4.718;2023-09-30T02:47:08;11.40;99.90
18240;DHT22;9244;50.828;4.718;2023-09-30T02:49:34;11.40;99.90
18240;DHT22;9244;50.828;4.718;2023-09-30T02:52:00;11.50;99.90
18240;DHT22;9244;50.828;4.718;2023-09-30T02:54:26;11.40;99.90
18240;DHT22;9244;50.828;4.718;2023-09-30T02:56:52;11.40;99.90
18240;DHT22;9244;50.828;4.718;2023-09-30T02:59:20;11.40;99.90
18240;DHT22;9244;50.828;4.718;2023-09-30T03:01:47;11.50;99.90
18240;DHT22;9244;50.828;4.718;2023-09-30T03:04:13;11.50;99.90
18240;DHT22;9244;50.828;4.718;2023-09-30T03:06:39;11.40;99.90
18240;DHT22;9244;50.828;4.718;2023-09-30T03:09:05;11.40;99.90
18240;DHT22;9244;50.828;4.718;2023-09-30T03:11:31;11.40;99.90
18240;DHT22;9244;50.828;4.718;2023-09-30T03:13:57;11.40;99.90
18240;DHT22;9244;50.828;4.718;2023-09-30T03:16:24;11.30;99.90
18240;DHT22;9244;50.828;4.718;2023-09-30T03:18:50;11.30;99.90
18240;DHT22;9244;50.828;4.718;2023-09-30T03:21:16;11.30;99.90
18240;DHT22;9244;50.828;4.718;2023-09-30T03:23:43;11.30;99.90
18240;DHT22;9244;50.828;4.718;2023-09-30T03:26:09;11.30;99.90
18240;DHT22;9244;50.828;4.718;2023-09-30T03:28:36;11.30;99.90
18240;DHT22;9244;50.828;4.718;2023-09-30T03:31:03;11.40;99.90
18240;DHT22;9244;50.828;4.718;2023-09-30T03:33:31;11.40;99.90
18240;DHT22;9244;50.828;4.718;2023-09-30T03:35:58;11.40;99.90
18240;DHT22;9244;50.828;4.718;2023-09-30T03:38:25;11.40;99.90
18240;DHT22;9244;50.828;4.718;2023-09-30T03:40:51;11.30;99.90
18240;DHT22;9244;50.828;4.718;2023-09-30T03:43:19;11.30;99.90
18240;DHT22;9244;50.828;4.718;2023-09-30T03:45:44;11.20;99.90
18240;DHT22;9244;50.828;4.718;2023-09-30T03:48:10;11.10;99.90
18240;DHT22;9244;50.828;4.718;2023-09-30T03:50:37;11.10;99.90
18240;DHT22;9244;50.828;4.718;2023-09-30T03:53:04;11.10;99.90
18240;DHT22;9244;50.828;4.718;2023-09-30T03:55:33;11.10;99.90
18240;DHT22;9244;50.828;4.718;2023-09-30T03:57:59;11.10;99.90
18240;DHT22;9244;50.828;4.718;2023-09-30T04:00:25;11.20;99.90
18240;DHT22;9244;50.828;4.718;2023-09-30T04:02:51;11.20;99.90
18240;DHT22;9244;50.828;4.718;2023-09-30T04:05:23;11.20;99.90
18240;DHT22;9244;50.828;4.718;2023-09-30T04:07:55;11.30;99.90
18240;DHT22;9244;50.828;4.718;2023-09-30T04:10:20;11.30;99.90
18240;DHT22;9244;50.828;4.718;2023-09-30T04:12:48;11.30;99.90
18240;DHT22;9244;50.828;4.718;2023-09-30T04:15:14;11.20;99.90
18240;DHT22;9244;50.828;4.718;2023-09-30T04:17:39;11.20;99.90
18240;DHT22;9244;50.828;4.718;2023-09-30T04:20:08;11.20;99.90
18240;DHT22;9244;50.828;4.718;2023-09-30T04:22:36;11.10;99.90
18240;DHT22;9244;50.828;4.718;2023-09-30T04:25:02;11.10;99.90
18240;DHT22;9244;50.828;4.718;2023-09-30T04:27:34;11.10;99.90
18240;DHT22;9244;50.828;4.718;2023-09-30T04:29:59;11.10;99.90
18240;DHT22;9244;50.828;4.718;2023-09-30T04:32:25;11.10;99.90
18240;DHT22;9244;50.828;4.718;2023-09-30T04:34:52;11.10;99.90
18240;DHT22;9244;50.828;4.718;2023-09-30T04:37:18;11.00;99.90
18240;DHT22;9244;50.828;4.718;2023-09-30T04:39:44;11.00;99.90
18240;DHT22;9244;50.828;4.718;2023-09-30T04:42:10;11.00;99.90
18240;DHT22;9244;50.828;4.718;2023-09-30T04:44:37;11.00;99.90
18240;DHT22;9244;50.828;4.718;2023-09-30T04:47:04;11.00;99.90
18240;DHT22;9244;50.828;4.718;2023-09-30T04:49:30;11.00;99.90
18240;DHT22;9244;50.828;4.718;2023-09-30T04:51:56;11.00;99.90
18240;DHT22;9244;50.828;4.718;2023-09-30T04:54:22;10.90;99.90
18240;DHT22;9244;50.828;4.718;2023-09-30T04:56:47;11.00;99.90
18240;DHT22;9244;50.828;4.718;2023-09-30T04:59:13;11.00;99.90
18240;DHT22;9244;50.828;4.718;2023-09-30T05:01:40;10.90;99.90
18240;DHT22;9244;50.828;4.718;2023-09-30T05:04:06;10.90;99.90
18240;DHT22;9244;50.828;4.718;2023-09-30T05:06:32;10.90;99.90
18240;DHT22;9244;50.828;4.718;2023-09-30T05:08:58;11.00;99.90
18240;DHT22;9244;50.828;4.718;2023-09-30T05:11:24;10.90;99.90
18240;DHT22;9244;50.828;4.718;2023-09-30T05:13:50;10.90;99.90
18240;DHT22;9244;50.828;4.718;2023-09-30T05:16:17;10.80;99.90
18240;DHT22;9244;50.828;4.718;2023-09-30T05:18:42;10.80;99.90
18240;DHT22;9244;50.828;4.718;2023-09-30T05:21:08;10.70;99.90
18240;DHT22;9244;50.828;4.718;2023-09-30T05:23:35;10.70;99.90
18240;DHT22;9244;50.828;4.718;2023-09-30T05:26:01;10.80;99.90
18240;DHT22;9244;50.828;4.718;2023-09-30T05:28:27;10.70;99.90
18240;DHT22;9244;50.828;4.718;2023-09-30T05:30:53;10.70;99.90
18240;DHT22;9244;50.828;4.718;2023-09-30T05:33:19;10.80;99.90
18240;DHT22;9244;50.828;4.718;2023-09-30T05:35:44;10.80;99.90
18240;DHT22;9244;50.828;4.718;2023-09-30T05:38:10;10.80;99.90
18240;DHT22;9244;50.828;4.718;2023-09-30T05:40:36;10.80;99.90
18240;DHT22;9244;50.828;4.718;2023-09-30T05:43:02;10.70;99.90
18240;DHT22;9244;50.828;4.718;2023-09-30T05:45:31;10.70;99.90
18240;DHT22;9244;50.828;4.718;2023-09-30T05:48:00;10.70;99.90
18240;DHT22;9244;50.828;4.718;2023-09-30T05:50:28;10.70;99.90
18240;DHT22;9244;50.828;4.718;2023-09-30T05:52:55;10.70;99.90
18240;DHT22;9244;50.828;4.718;2023-09-30T05:55:21;10.80;99.90
18240;DHT22;9244;50.828;4.718;2023-09-30T05:57:51;10.80;99.90
18240;DHT22;9244;50.828;4.718;2023-09-30T06:00:18;10.80;99.90
18240;DHT22;9244;50.828;4.718;2023-09-30T06:02:55;10.80;99.90
18240;DHT22;9244;50.828;4.718;2023-09-30T06:05:21;10.70;99.90
18240;DHT22;9244;50.828;4.718;2023-09-30T06:07:51;10.80;99.90
18240;DHT22;9244;50.828;4.718;2023-09-30T06:10:17;10.80;99.90
18240;DHT22;9244;50.828;4.718;2023-09-30T06:12:48;10.80;99.90
18240;DHT22;9244;50.828;4.718;2023-09-30T06:15:16;10.80;99.90
18240;DHT22;9244;50.828;4.718;2023-09-30T06:17:48;10.80;99.90
18240;DHT22;9244;50.828;4.718;2023-09-30T06:20:14;10.80;99.90
18240;DHT22;9244;50.828;4.718;2023-09-30T06:22:46;10.90;99.90
18240;DHT22;9244;50.828;4.718;2023-09-30T06:25:13;11.00;99.90
18240;DHT22;9244;50.828;4.718;2023-09-30T06:27:45;11.00;99.90
18240;DHT22;9244;50.828;4.718;2023-09-30T06:30:12;11.00;99.90
18240;DHT22;9244;50.828;4.718;2023-09-30T06:32:38;11.00;99.90
18240;DHT22;9244;50.828;4.718;2023-09-30T06:35:05;11.10;99.90
18240;DHT22;9244;50.828;4.718;2023-09-30T06:37:32;11.20;99.90
18240;DHT22;9244;50.828;4.718;2023-09-30T06:39:57;11.30;99.90
18240;DHT22;9244;50.828;4.718;2023-09-30T06:42:24;11.30;99.90
18240;DHT22;9244;50.828;4.718;2023-09-30T06:44:50;11.40;99.90
18240;DHT22;9244;50.828;4.718;2023-09-30T06:47:18;11.40;99.90
18240;DHT22;9244;50.828;4.718;2023-09-30T06:49:43;11.40;99.90
18240;DHT22;9244;50.828;4.718;2023-09-30T06:52:10;11.40;99.90
18240;DHT22;9244;50.828;4.718;2023-09-30T06:54:36;11.50;99.90
18240;DHT22;9244;50.828;4.718;2023-09-30T06:57:02;11.60;99.90
18240;DHT22;9244;50.828;4.718;2023-09-30T06:59:28;11.70;99.90
18240;DHT22;9244;50.828;4.718;2023-09-30T07:01:53;11.80;99.90
18240;DHT22;9244;50.828;4.718;2023-09-30T07:04:20;12.00;99.90
18240;DHT22;9244;50.828;4.718;2023-09-30T07:06:47;12.20;99.90
18240;DHT22;9244;50.828;4.718;2023-09-30T07:09:12;12.40;99.90
18240;DHT22;9244;50.828;4.718;2023-09-30T07:11:38;12.40;99.90
18240;DHT22;9244;50.828;4.718;2023-09-30T07:14:04;12.40;99.90
18240;DHT22;9244;50.828;4.718;2023-09-30T07:16:30;12.50;99.90
18240;DHT22;9244;50.828;4.718;2023-09-30T07:18:55;12.60;99.90
18240;DHT22;9244;50.828;4.718;2023-09-30T07:21:21;12.90;99.90
18240;DHT22;9244;50.828;4.718;2023-09-30T07:23:47;12.90;99.90
18240;DHT22;9244;50.828;4.718;2023-09-30T07:26:13;13.10;99.90
18240;DHT22;9244;50.828;4.718;2023-09-30T07:28:40;13.30;99.90
18240;DHT22;9244;50.828;4.718;2023-09-30T07:31:06;13.40;99.90
18240;DHT22;9244;50.828;4.718;2023-09-30T07:33:32;13.60;99.90
18240;DHT22;9244;50.828;4.718;2023-09-30T07:35:57;13.70;99.90
18240;DHT22;9244;50.828;4.718;2023-09-30T07:38:23;14.10;99.90
18240;DHT22;9244;50.828;4.718;2023-09-30T07:40:49;14.10;99.90
18240;DHT22;9244;50.828;4.718;2023-09-30T07:43:15;14.30;99.90
18240;DHT22;9244;50.828;4.718;2023-09-30T07:45:43;14.70;99.90
18240;DHT22;9244;50.828;4.718;2023-09-30T07:48:09;14.80;99.90
18240;DHT22;9244;50.828;4.718;2023-09-30T07:50:36;14.90;99.90
18240;DHT22;9244;50.828;4.718;2023-09-30T07:53:02;15.10;99.90
18240;DHT22;9244;50.828;4.718;2023-09-30T07:55:27;15.10;99.90
18240;DHT22;9244;50.828;4.718;2023-09-30T07:57:53;15.40;99.90
18240;DHT22;9244;50.828;4.718;2023-09-30T08:00:19;15.60;99.90
18240;DHT22;9244;50.828;4.718;2023-09-30T08:02:46;15.50;99.90
18240;DHT22;9244;50.828;4.718;2023-09-30T08:05:12;15.30;99.90
18240;DHT22;9244;50.828;4.718;2023-09-30T08:07:38;15.20;99.90
18240;DHT22;9244;50.828;4.718;2023-09-30T08:10:04;15.20;99.90
18240;DHT22;9244;50.828;4.718;2023-09-30T08:12:32;15.20;99.90
18240;DHT22;9244;50.828;4.718;2023-09-30T08:14:57;15.40;99.90
18240;DHT22;9244;50.828;4.718;2023-09-30T08:17:23;15.60;99.90
18240;DHT22;9244;50.828;4.718;2023-09-30T08:19:48;16.00;99.90
18240;DHT22;9244;50.828;4.718;2023-09-30T08:22:14;16.40;99.90
18240;DHT22;9244;50.828;4.718;2023-09-30T08:24:40;16.70;99.90
18240;DHT22;9244;50.828;4.718;2023-09-30T08:27:06;16.90;99.90
18240;DHT22;9244;50.828;4.718;2023-09-30T08:29:35;16.90;99.90
18240;DHT22;9244;50.828;4.718;2023-09-30T08:32:03;16.60;99.90
18240;DHT22;9244;50.828;4.718;2023-09-30T08:34:30;16.60;99.90
18240;DHT22;9244;50.828;4.718;2023-09-30T08:36:55;16.70;99.90
18240;DHT22;9244;50.828;4.718;2023-09-30T08:39:22;16.70;99.90
18240;DHT22;9244;50.828;4.718;2023-09-30T08:41:49;16.70;99.90
18240;DHT22;9244;50.828;4.718;2023-09-30T08:44:15;16.80;99.90
18240;DHT22;9244;50.828;4.718;2023-09-30T08:46:41;17.00;99.90
18240;DHT22;9244;50.828;4.718;2023-09-30T08:49:08;17.20;99.90
18240;DHT22;9244;50.828;4.718;2023-09-30T08:51:35;17.00;99.90
18240;DHT22;9244;50.828;4.718;2023-09-30T08:54:01;17.00;99.90
18240;DHT22;9244;50.828;4.718;2023-09-30T08:56:30;17.10;99.90
18240;DHT22;9244;50.828;4.718;2023-09-30T08:58:59;17.10;99.90
18240;DHT22;9244;50.828;4.718;2023-09-30T09:01:29;17.40;99.90
18240;DHT22;9244;50.828;4.718;2023-09-30T09:03:56;17.80;99.90
18240;DHT22;9244;50.828;4.718;2023-09-30T09:06:23;17.90;99.90
18240;DHT22;9244;50.828;4.718;2023-09-30T09:08:50;17.70;99.90
18240;DHT22;9244;50.828;4.718;2023-09-30T09:11:15;17.90;99.90
18240;DHT22;9244;50.828;4.718;2023-09-30T09:13:48;18.00;99.90
18240;DHT22;9244;50.828;4.718;2023-09-30T09:16:16;18.00;99.90
18240;DHT22;9244;50.828;4.718;2023-09-30T09:18:44;17.90;99.90
18240;DHT22;9244;50.828;4.718;2023-09-30T09:21:20;18.00;99.90
18240;DHT22;9244;50.828;4.718;2023-09-30T09:23:53;18.50;99.90
18240;DHT22;9244;50.828;4.718;2023-09-30T09:26:30;18.30;99.90
18240;DHT22;9244;50.828;4.718;2023-09-30T09:28:58;18.00;99.90
18240;DHT22;9244;50.828;4.718;2023-09-30T09:31:29;18.40;99.90
18240;DHT22;9244;50.828;4.718;2023-09-30T09:33:56;18.40;99.90
18240;DHT22;9244;50.828;4.718;2023-09-30T09:36:41;18.70;99.90
18240;DHT22;9244;50.828;4.718;2023-09-30T09:39:07;19.30;99.90
18240;DHT22;9244;50.828;4.718;2023-09-30T09:41:49;19.50;99.90
18240;DHT22;9244;50.828;4.718;2023-09-30T09:44:16;19.40;99.90
18240;DHT22;9244;50.828;4.718;2023-09-30T09:46:43;19.00;99.90
18240;DHT22;9244;50.828;4.718;2023-09-30T09:49:09;18.50;99.90
18240;DHT22;9244;50.828;4.718;2023-09-30T09:51:36;18.60;99.90
18240;DHT22;9244;50.828;4.718;2023-09-30T09:54:03;18.70;99.90
18240;DHT22;9244;50.828;4.718;2023-09-30T09:56:31;19.10;99.90
18240;DHT22;9244;50.828;4.718;2023-09-30T09:59:00;18.60;99.90
18240;DHT22;9244;50.828;4.718;2023-09-30T10:01:27;18.60;99.90
18240;DHT22;9244;50.828;4.718;2023-09-30T10:03:53;18.70;99.90
18240;DHT22;9244;50.828;4.718;2023-09-30T10:06:19;19.20;99.90
18240;DHT22;9244;50.828;4.718;2023-09-30T10:08:46;19.30;99.90
18240;DHT22;9244;50.828;4.718;2023-09-30T10:11:19;19.40;99.90
18240;DHT22;9244;50.828;4.718;2023-09-30T10:13:54;19.50;99.90
18240;DHT22;9244;50.828;4.718;2023-09-30T10:19:08;19.10;99.90
18240;DHT22;9244;50.828;4.718;2023-09-30T10:21:34;19.10;99.90
18240;DHT22;9244;50.828;4.718;2023-09-30T10:29:58;18.90;99.90
18240;DHT22;9244;50.828;4.718;2023-09-30T10:40:52;17.90;99.90
18240;DHT22;9244;50.828;4.718;2023-09-30T10:43:37;17.80;99.90
18240;DHT22;9244;50.828;4.718;2023-09-30T10:46:05;17.60;99.90
18240;DHT22;9244;50.828;4.718;2023-09-30T10:48:50;17.40;99.90
18240;DHT22;9244;50.828;4.718;2023-09-30T10:51:16;17.50;99.90
18240;DHT22;9244;50.828;4.718;2023-09-30T10:53:46;17.40;99.90
18240;DHT22;9244;50.828;4.718;2023-09-30T10:56:12;17.60;99.90
18240;DHT22;9244;50.828;4.718;2023-09-30T10:58:45;18.10;99.90
18240;DHT22;9244;50.828;4.718;2023-09-30T11:01:12;18.70;99.90
18240;DHT22;9244;50.828;4.718;2023-09-30T11:03:39;19.20;99.90
18240;DHT22;9244;50.828;4.718;2023-09-30T11:06:05;19.00;99.90
18240;DHT22;9244;50.828;4.718;2023-09-30T11:08:32;19.10;99.90
18240;DHT22;9244;50.828;4.718;2023-09-30T11:10:58;19.50;99.90
18240;DHT22;9244;50.828;4.718;2023-09-30T11:13:34;19.90;99.90
18240;DHT22;9244;50.828;4.718;2023-09-30T11:16:04;19.80;99.90
18240;DHT22;9244;50.828;4.718;2023-09-30T11:18:30;19.90;99.90
18240;DHT22;9244;50.828;4.718;2023-09-30T11:21:10;19.50;99.90
18240;DHT22;9244;50.828;4.718;2023-09-30T11:23:38;19.20;99.90
18240;DHT22;9244;50.828;4.718;2023-09-30T11:26:05;19.30;99.90
18240;DHT22;9244;50.828;4.718;2023-09-30T11:28:41;19.10;99.90
18240;DHT22;9244;50.828;4.718;2023-09-30T11:31:12;19.20;99.90
18240;DHT22;9244;50.828;4.718;2023-09-30T11:33:51;19.60;99.90
18240;DHT22;9244;50.828;4.718;2023-09-30T11:36:19;20.20;99.90
18240;DHT22;9244;50.828;4.718;2023-09-30T11:38:46;20.40;99.90
18240;DHT22;9244;50.828;4.718;2023-09-30T11:41:13;20.70;99.90
18240;DHT22;9244;50.828;4.718;2023-09-30T11:43:39;21.00;99.90
18240;DHT22;9244;50.828;4.718;2023-09-30T11:46:09;21.10;99.90
18240;DHT22;9244;50.828;4.718;2023-09-30T11:48:37;21.20;99.90
18240;DHT22;9244;50.828;4.718;2023-09-30T11:51:03;21.20;99.90
18240;DHT22;9244;50.828;4.718;2023-09-30T11:53:35;21.30;99.90
18240;DHT22;9244;50.828;4.718;2023-09-30T11:56:01;21.30;99.90
18240;DHT22;9244;50.828;4.718;2023-09-30T11:58:30;21.50;99.90
18240;DHT22;9244;50.828;4.718;2023-09-30T12:00:59;21.40;99.90
18240;DHT22;9244;50.828;4.718;2023-09-30T12:03:27;21.10;99.90
18240;DHT22;9244;50.828;4.718;2023-09-30T12:05:54;21.00;99.90
18240;DHT22;9244;50.828;4.718;2023-09-30T12:08:21;20.50;99.90
18240;DHT22;9244;50.828;4.718;2023-09-30T12:10:47;20.80;99.90
18240;DHT22;9244;50.828;4.718;2023-09-30T12:13:13;21.20;99.90
18240;DHT22;9244;50.828;4.718;2023-09-30T12:15:41;21.90;99.90
18240;DHT22;9244;50.828;4.718;2023-09-30T12:18:06;22.30;99.90
18240;DHT22;9244;50.828;4.718;2023-09-30T12:20:32;22.50;99.90
18240;DHT22;9244;50.828;4.718;2023-09-30T12:22:58;22.70;99.90
18240;DHT22;9244;50.828;4.718;2023-09-30T12:25:24;22.70;99.90
18240;DHT22;9244;50.828;4.718;2023-09-30T12:27:50;22.90;99.90
18240;DHT22;9244;50.828;4.718;2023-09-30T12:30:16;23.10;99.90
18240;DHT22;9244;50.828;4.718;2023-09-30T12:32:45;22.90;99.90
18240;DHT22;9244;50.828;4.718;2023-09-30T12:35:11;23.20;99.90
18240;DHT22;9244;50.828;4.718;2023-09-30T12:37:37;22.90;99.90
18240;DHT22;9244;50.828;4.718;2023-09-30T12:40:05;23.10;99.90
18240;DHT22;9244;50.828;4.718;2023-09-30T12:42:32;23.40;99.90
18240;DHT22;9244;50.828;4.718;2023-09-30T12:45:00;24.00;99.90
18240;DHT22;9244;50.828;4.718;2023-09-30T12:47:26;24.10;99.90
18240;DHT22;9244;50.828;4.718;2023-09-30T12:49:52;23.90;99.90
18240;DHT22;9244;50.828;4.718;2023-09-30T12:52:22;23.80;99.90
18240;DHT22;9244;50.828;4.718;2023-09-30T12:54:49;23.90;99.90
18240;DHT22;9244;50.828;4.718;2023-09-30T12:57:15;24.20;99.90
18240;DHT22;9244;50.828;4.718;2023-09-30T12:59:46;24.50;99.90
18240;DHT22;9244;50.828;4.718;2023-09-30T13:02:12;24.00;99.90
18240;DHT22;9244;50.828;4.718;2023-09-30T13:04:38;23.70;99.90
18240;DHT22;9244;50.828;4.718;2023-09-30T13:07:09;23.50;99.90
18240;DHT22;9244;50.828;4.718;2023-09-30T13:09:35;23.80;99.90
18240;DHT22;9244;50.828;4.718;2023-09-30T13:12:02;23.90;99.90
18240;DHT22;9244;50.828;4.718;2023-09-30T13:14:28;24.00;99.90
18240;DHT22;9244;50.828;4.718;2023-09-30T13:16:54;23.70;99.90
18240;DHT22;9244;50.828;4.718;2023-09-30T13:19:20;23.70;99.90
18240;DHT22;9244;50.828;4.718;2023-09-30T13:21:51;23.40;99.90
18240;DHT22;9244;50.828;4.718;2023-09-30T13:24:21;23.30;99.90
18240;DHT22;9244;50.828;4.718;2023-09-30T13:26:47;23.70;99.90
18240;DHT22;9244;50.828;4.718;2023-09-30T13:29:14;23.60;99.90
18240;DHT22;9244;50.828;4.718;2023-09-30T13:31:42;23.70;99.90
18240;DHT22;9244;50.828;4.718;2023-09-30T13:34:08;23.90;99.90
18240;DHT22;9244;50.828;4.718;2023-09-30T13:36:34;24.00;99.90
18240;DHT22;9244;50.828;4.718;2023-09-30T13:38:59;24.20;99.90
18240;DHT22;9244;50.828;4.718;2023-09-30T13:41:26;24.10;99.90
18240;DHT22;9244;50.828;4.718;2023-09-30T13:43:52;24.10;99.90
18240;DHT22;9244;50.828;4.718;2023-09-30T13:46:18;23.50;99.90
18240;DHT22;9244;50.828;4.718;2023-09-30T13:48:44;23.40;99.90
18240;DHT22;9244;50.828;4.718;2023-09-30T13:51:10;23.00;99.90
18240;DHT22;9244;50.828;4.718;2023-09-30T13:53:38;22.50;99.90
18240;DHT22;9244;50.828;4.718;2023-09-30T13:56:04;22.60;99.90
18240;DHT22;9244;50.828;4.718;2023-09-30T13:58:32;22.70;99.90
18240;DHT22;9244;50.828;4.718;2023-09-30T14:00:57;22.80;99.90
18240;DHT22;9244;50.828;4.718;2023-09-30T14:03:23;22.70;99.90
18240;DHT22;9244;50.828;4.718;2023-09-30T14:05:52;22.50;99.90
18240;DHT22;9244;50.828;4.718;2023-09-30T14:08:19;21.90;99.90
18240;DHT22;9244;50.828;4.718;2023-09-30T14:10:44;21.60;99.90
18240;DHT22;9244;50.828;4.718;2023-09-30T14:13:10;21.30;99.90
18240;DHT22;9244;50.828;4.718;2023-09-30T14:15:37;21.30;99.90
18240;DHT22;9244;50.828;4.718;2023-09-30T14:18:03;21.50;99.90
18240;DHT22;9244;50.828;4.718;2023-09-30T14:20:29;21.70;99.90
18240;DHT22;9244;50.828;4.718;2023-09-30T14:22:55;22.10;99.90
18240;DHT22;9244;50.828;4.718;2023-09-30T14:25:21;22.70;99.90
18240;DHT22;9244;50.828;4.718;2023-09-30T14:27:48;23.20;99.90
18240;DHT22;9244;50.828;4.718;2023-09-30T14:30:14;23.20;99.90
18240;DHT22;9244;50.828;4.718;2023-09-30T14:32:40;23.30;99.90
18240;DHT22;9244;50.828;4.718;2023-09-30T14:35:06;23.40;99.90
18240;DHT22;9244;50.828;4.718;2023-09-30T14:37:32;23.00;99.90
18240;DHT22;9244;50.828;4.718;2023-09-30T14:39:58;22.90;99.90
18240;DHT22;9244;50.828;4.718;2023-09-30T14:42:23;22.60;99.90
18240;DHT22;9244;50.828;4.718;2023-09-30T14:44:49;22.40;99.90
18240;DHT22;9244;50.828;4.718;2023-09-30T14:47:15;22.60;99.90
18240;DHT22;9244;50.828;4.718;2023-09-30T14:49:41;22.60;99.90
18240;DHT22;9244;50.828;4.718;2023-09-30T14:52:07;22.20;99.90
18240;DHT22;9244;50.828;4.718;2023-09-30T14:54:35;22.10;99.90
18240;DHT22;9244;50.828;4.718;2023-09-30T14:57:01;21.70;99.90
18240;DHT22;9244;50.828;4.718;2023-09-30T14:59:27;21.80;99.90
18240;DHT22;9244;50.828;4.718;2023-09-30T15:01:53;21.70;99.90
18240;DHT22;9244;50.828;4.718;2023-09-30T15:04:18;21.50;99.90
18240;DHT22;9244;50.828;4.718;2023-09-30T15:06:44;21.50;99.90
18240;DHT22;9244;50.828;4.718;2023-09-30T15:09:11;21.20;99.90
18240;DHT22;9244;50.828;4.718;2023-09-30T15:11:37;21.10;99.90
18240;DHT22;9244;50.828;4.718;2023-09-30T15:14:03;21.30;99.90
18240;DHT22;9244;50.828;4.718;2023-09-30T15:16:30;21.10;99.90
18240;DHT22;9244;50.828;4.718;2023-09-30T15:18:57;21.00;99.90
18240;DHT22;9244;50.828;4.718;2023-09-30T15:21:22;21.00;99.90
18240;DHT22;9244;50.828;4.718;2023-09-30T15:23:49;21.10;99.90
18240;DHT22;9244;50.828;4.718;2023-09-30T15:26:15;21.10;99.90
18240;DHT22;9244;50.828;4.718;2023-09-30T15:28:41;21.40;99.90
18240;DHT22;9244;50.828;4.718;2023-09-30T15:31:08;21.40;99.90
18240;DHT22;9244;50.828;4.718;2023-09-30T15:33:34;21.20;99.90
18240;DHT22;9244;50.828;4.718;2023-09-30T15:36:08;21.00;99.90
18240;DHT22;9244;50.828;4.718;2023-09-30T15:38:34;20.80;99.90
18240;DHT22;9244;50.828;4.718;2023-09-30T15:40:59;20.50;99.90
18240;DHT22;9244;50.828;4.718;2023-09-30T15:43:29;20.30;99.90
18240;DHT22;9244;50.828;4.718;2023-09-30T15:45:55;20.00;99.90
18240;DHT22;9244;50.828;4.718;2023-09-30T15:48:21;19.80;99.90
18240;DHT22;9244;50.828;4.718;2023-09-30T15:50:47;19.80;99.90
18240;DHT22;9244;50.828;4.718;2023-09-30T15:53:14;19.60;99.90
18240;DHT22;9244;50.828;4.718;2023-09-30T15:55:40;19.60;99.90
18240;DHT22;9244;50.828;4.718;2023-09-30T15:58:06;19.60;99.90
18240;DHT22;9244;50.828;4.718;2023-09-30T16:00:35;19.60;99.90